Latest Weather Observations for Point Fawcett

IDD60901

Issued at 11:41 pm CST Monday 30 March 2015 (issued every 10 minutes, with the page automatically refreshed every 10 minutes)

About weather observations | Map of Darwin area stations | Latest observations for Darwin area | Other Formats
Station Details ID: 200731 Name: POINT FAWCETT Lat: -11.76 Lon: 130.03 Height: 6.5 m
Data from the previous 72 hours. | See also: Recent months at Point Fawcett
Date/Time
CST
Tmp

°C
App
Tmp
°C
Dew
Point
°C
Rel
Hum
%
Delta-T

°C
Wind Press
QNH
hPa
Press
MSL
hPa
Rain
since
9 am
mm
Dir
 
Spd
km/h
Gust
km/h
Spd
kts
Gust
kts
30/11:30pm 22.4 25.6 21.2 93 0.8 E 6 7 3 4 1012.6 - -
30/11:00pm 22.5 25.5 21.3 93 0.8 E 7 9 4 5 1012.7 - -
30/10:30pm 22.7 25.7 21.3 92 0.9 ESE 7 7 4 4 1012.7 - -
30/10:00pm 22.9 26.0 21.4 91 1.0 ESE 7 7 4 4 1012.6 - -
30/09:30pm 23.2 26.3 21.5 90 1.1 E 7 9 4 5 1012.4 - -
30/09:00pm 23.8 27.1 21.9 89 1.3 E 7 9 4 5 1012.3 1012.2 -
30/08:30pm 24.0 26.9 21.7 87 1.5 E 9 11 5 6 1011.9 - -
30/08:00pm 24.6 27.5 21.7 84 1.9 E 9 11 5 6 1011.6 - -
30/07:30pm 25.2 28.3 21.5 80 2.5 E 7 9 4 5 1011.3 - -
30/07:00pm 27.0 30.0 21.3 71 3.8 ENE 7 9 4 5 1010.8 - -
30/06:30pm 29.0 31.5 21.0 62 5.3 E 9 13 5 7 1010.6 - -
30/06:00pm 30.5 33.3 21.6 59 6.0 E 9 15 5 8 1010.5 1010.4 -
30/05:30pm 30.9 32.2 20.2 53 7.1 E 13 26 7 14 1010.3 - -
30/05:00pm 31.1 32.5 21.9 58 6.2 ESE 17 28 9 15 1010.2 - -
30/04:30pm 31.6 33.8 23.9 63 5.4 ESE 19 30 10 16 1009.9 - -
30/04:00pm 31.9 34.2 23.4 60 5.9 ESE 17 28 9 15 1009.7 - -
30/03:30pm 32.3 35.8 24.9 65 5.2 SE 15 24 8 13 1009.7 - -
30/03:00pm 31.8 34.2 23.6 62 5.7 SE 17 26 9 14 1010.0 1009.9 -
30/02:30pm 32.2 35.7 24.8 65 5.2 SE 15 28 8 15 1010.3 - -
30/02:00pm 32.4 36.1 25.2 66 5.1 SE 15 26 8 14 1010.5 - -
30/01:30pm 32.0 36.4 25.6 69 4.5 SE 13 22 7 12 1010.7 - -
30/01:00pm 30.3 35.5 25.1 73 3.7 SW 7 11 4 6 1011.1 - -
30/12:30pm 30.9 34.7 25.9 74 3.6 WNW 17 20 9 11 1011.3 - -
30/12:00pm 31.9 36.7 25.7 69 4.4 NW 11 17 6 9 1011.7 1011.6 -
30/11:30am 31.5 36.5 25.4 70 4.3 NNE 9 13 5 7 1012.2 - -
30/11:00am 31.6 35.3 24.5 66 5.0 E 13 17 7 9 1012.5 - -
30/10:30am 31.2 36.5 25.8 73 3.8 ENE 9 17 5 9 1012.9 - -
30/10:00am 30.9 35.3 25.0 71 4.2 E 11 17 6 9 1013.1 - -
30/09:30am 30.3 34.9 25.4 75 3.5 ENE 11 15 6 8 1013.0 - -
30/09:00am 28.9 33.5 24.7 78 2.9 ENE 9 13 5 7 1012.8 1012.7 -
30/08:30am 27.5 31.9 25.1 87 1.7 ENE 11 15 6 8 1012.7 - -
30/08:00am 25.7 30.3 24.7 94 0.7 E 9 15 5 8 1012.2 - -
30/07:30am 24.1 27.8 23.2 95 0.6 E 9 13 5 7 1011.8 - -
30/07:00am 23.5 26.5 22.7 95 0.5 E 11 15 6 8 1011.5 - -
30/06:30am 23.4 26.4 22.6 95 0.5 E 11 15 6 8 1011.1 - -
30/06:00am 23.1 26.3 22.3 95 0.5 ESE 9 13 5 7 1010.7 1010.6 -
30/05:30am 23.0 26.1 22.2 95 0.5 ESE 9 9 5 5 1010.5 - -
30/05:00am 23.0 26.5 22.2 95 0.5 ESE 7 9 4 5 1010.4 - -
30/04:30am 23.2 26.7 22.2 94 0.7 ESE 7 9 4 5 1010.4 - -
30/04:00am 23.4 27.0 22.4 94 0.7 ESE 7 7 4 4 1010.4 - -
30/03:30am 23.7 27.7 22.7 94 0.7 ESE 6 7 3 4 1010.7 - -
30/03:00am 23.9 28.0 22.9 94 0.7 SE 6 7 3 4 1011.0 1010.9 -
30/02:30am 24.1 28.0 22.9 93 0.8 SSE 7 7 4 4 1011.2 - -
30/02:00am 24.4 28.5 23.2 93 0.8 SE 7 7 4 4 1011.3 - -
30/01:30am 24.7 28.8 23.3 92 1.0 ESE 7 9 4 5 1011.7 - -
30/01:00am 25.0 29.2 23.4 91 1.1 ESE 7 9 4 5 1012.1 - -
30/12:30am 25.6 30.0 23.8 90 1.2 ESE 7 9 4 5 1012.4 - -
30/12:00am 26.0 30.5 23.7 87 1.6 WNW 6 7 3 4 1012.7 1012.6 -
 
Date/Time
CST
Tmp

°C
App
Tmp
°C
Dew
Point
°C
Rel
Hum
%
Delta-T

°C
Wind Press
QNH
hPa
Press
MSL
hPa
Rain
since
9 am
mm
Dir
 
Spd
km/h
Gust
km/h
Spd
kts
Gust
kts
29/11:30pm 27.7 32.5 25.1 86 1.8 NW 9 13 5 7 1012.7 - -
29/11:00pm 27.9 32.3 25.1 85 2.0 WNW 11 13 6 7 1012.8 - -
29/10:30pm 28.2 32.8 25.4 85 2.0 WNW 11 15 6 8 1012.8 - -
29/10:00pm 28.2 32.6 25.6 86 1.8 NW 13 15 7 8 1012.7 - -
29/09:30pm 27.8 32.7 25.8 89 1.4 NW 11 15 6 8 1012.6 - -
29/09:00pm 26.7 31.1 25.1 91 1.1 NW 11 13 6 7 1012.4 1012.3 -
29/08:30pm 25.3 30.4 23.4 89 1.3 SSE 2 7 1 4 1012.2 - -
29/08:00pm 26.2 30.7 23.9 87 1.6 NW 7 9 4 5 1011.8 - -
29/07:30pm 26.2 30.7 23.7 86 1.7 NNE 6 13 3 7 1011.4 - -
29/07:00pm 26.5 30.4 23.0 81 2.4 ESE 7 9 4 5 1010.9 - -
29/06:30pm 28.2 32.1 22.9 73 3.6 ESE 7 9 4 5 1010.6 - -
29/06:00pm 30.3 34.2 23.0 65 5.0 ESE 7 13 4 7 1010.2 1010.1 -
29/05:30pm 31.0 33.7 22.9 62 5.6 ESE 13 22 7 12 1009.9 - -
29/05:00pm 31.2 34.3 23.6 64 5.3 ESE 13 24 7 13 1009.9 - -
29/04:30pm 31.1 33.0 22.7 61 5.7 ESE 17 26 9 14 1009.8 - -
29/04:00pm 31.4 34.6 24.3 66 5.0 SE 15 30 8 16 1009.5 - -
29/03:30pm 31.3 34.2 23.9 64 5.1 SE 15 26 8 14 1009.7 - -
29/03:00pm 31.5 35.1 24.4 66 5.0 SSE 13 26 7 14 1010.0 1009.9 -
29/02:30pm 30.8 35.3 25.2 72 4.0 SE 11 17 6 9 1010.3 - -
29/02:00pm 30.5 35.2 24.9 72 3.9 ESE 9 20 5 11 1010.6 - -
29/01:30pm 30.6 35.2 25.4 74 3.7 W 11 15 6 8 1010.9 - -
29/01:00pm 31.1 35.9 25.7 73 3.8 NW 11 13 6 7 1011.3 - -
29/12:30pm 30.5 34.5 25.1 73 3.8 NW 13 15 7 8 1011.9 - -
29/12:00pm 31.4 36.3 26.4 75 3.6 NNW 13 19 7 10 1012.3 1012.2 -
29/11:30am 30.9 36.1 25.7 74 3.7 WNW 9 13 5 7 1012.9 - -
29/11:00am 30.5 35.9 25.1 73 3.8 SSE 6 13 3 7 1013.1 - -
29/10:30am 29.9 34.2 24.3 72 3.9 SSE 9 15 5 8 1013.3 - -
29/10:00am 29.6 34.5 24.7 75 3.4 E 7 11 4 6 1013.3 - -
29/09:30am 28.9 35.3 26.7 88 1.6 ESE 6 9 3 5 1013.1 - -
29/09:00am 27.7 33.5 26.6 94 0.8 E 9 11 5 6 1013.0 1012.9 -
29/08:30am 26.4 31.7 25.9 97 0.4 E 9 11 5 6 1012.7 - -
29/08:00am 25.5 30.6 25.0 97 0.3 E 7 11 4 6 1012.5 - -
29/07:30am 23.9 28.1 23.4 97 0.3 E 7 9 4 5 1012.0 - -
29/07:00am 23.0 26.6 22.3 96 0.5 ESE 7 9 4 5 1011.6 - -
29/06:30am 23.0 26.6 22.3 96 0.5 ESE 7 9 4 5 1011.4 - -
29/06:00am 22.9 26.4 22.2 96 0.5 ESE 7 9 4 5 1011.1 1011.0 -
29/05:30am 22.9 26.4 22.2 96 0.5 ESE 7 9 4 5 1010.7 - -
29/05:00am 22.9 26.4 22.2 96 0.5 ESE 7 9 4 5 1010.4 - -
29/04:30am 23.0 26.6 22.3 96 0.5 SE 7 9 4 5 1010.4 - -
29/04:00am 23.0 26.6 22.3 96 0.5 SE 7 9 4 5 1010.7 - -
29/03:30am 23.0 26.2 22.3 96 0.5 SE 9 9 5 5 1010.7 - -
29/03:00am 23.1 26.7 22.4 96 0.5 SE 7 9 4 5 1010.6 1010.5 -
29/02:30am 23.1 26.7 22.4 96 0.5 SE 7 9 4 5 1011.1 - -
29/02:00am 23.1 26.7 22.4 96 0.5 ESE 7 9 4 5 1011.6 - -
29/01:30am 23.1 26.7 22.3 95 0.5 ESE 7 7 4 4 1011.6 - -
29/01:00am 23.1 26.7 22.3 95 0.5 ESE 7 7 4 4 1012.1 - -
29/12:30am 23.2 26.8 22.4 95 0.5 ESE 7 7 4 4 1012.4 - -
29/12:00am 23.4 27.1 22.6 95 0.5 ESE 7 7 4 4 1012.8 1012.7 -
 
Date/Time
CST
Tmp

°C
App
Tmp
°C
Dew
Point
°C
Rel
Hum
%
Delta-T

°C
Wind Press
QNH
hPa
Press
MSL
hPa
Rain
since
9 am
mm
Dir
 
Spd
km/h
Gust
km/h
Spd
kts
Gust
kts
28/11:00pm 23.8 27.7 22.9 95 0.6 E 7 9 4 5 1012.7 - -
28/10:30pm 23.8 27.6 22.8 94 0.7 E 7 9 4 5 1012.7 - -
28/10:00pm 23.9 27.8 22.9 94 0.7 ESE 7 9 4 5 1012.5 - -
28/09:30pm 24.2 28.3 23.2 94 0.7 E 7 9 4 5 1012.4 - -
28/09:00pm 24.5 28.7 23.5 94 0.7 E 7 9 4 5 1012.4 1012.3 -
28/08:30pm 24.6 28.9 23.6 94 0.7 E 7 7 4 4 1012.2 - -
28/08:00pm 24.7 28.9 23.5 93 0.8 NE 7 9 4 5 1012.1 - -
28/07:30pm 24.6 28.8 23.4 93 0.8 NE 7 11 4 6 1011.8 - -
28/07:00pm 24.6 28.8 23.4 93 0.8 N 7 9 4 5 1011.4 - -
28/06:30pm 24.2 28.0 22.8 92 0.9 N 7 9 4 5 1011.4 - -
28/06:00pm 23.8 26.9 22.2 91 1.1 ESE 9 15 5 8 1011.6 1011.5 -
28/05:30pm 24.4 27.5 22.8 91 1.1 NE 11 15 6 8 1011.3 - -
28/05:00pm 23.7 26.1 21.6 88 1.4 SE 11 22 6 12 1010.6 - -
28/04:30pm 25.0 26.8 22.5 86 1.7 E 17 28 9 15 1011.2 - -
28/04:00pm 27.0 32.0 24.8 88 1.5 E 7 13 4 7 1010.3 - -
28/03:30pm 27.0 32.3 25.0 89 1.4 WSW 6 9 3 5 1010.2 - -
28/03:00pm 26.1 29.9 24.0 88 1.4 WSW 11 19 6 10 1010.6 1010.5 -
28/02:30pm 29.1 33.2 24.0 74 3.5 SSE 9 17 5 9 1011.3 - -
28/02:00pm 32.4 36.6 26.5 71 4.2 N 17 22 9 12 1011.0 - -
28/01:30pm 33.0 37.5 27.0 70 4.3 N 17 20 9 11 1011.4 - -
28/01:00pm 32.4 37.3 26.9 73 4.0 N 15 19 8 10 1011.7 - -
28/12:30pm 32.4 37.5 26.7 72 4.1 N 13 20 7 11 1012.2 - -
28/12:00pm 32.3 37.5 26.8 73 4.0 N 13 19 7 10 1012.7 1012.6 -
28/11:30am 32.2 37.3 26.7 72 4.0 N 13 17 7 9 1013.2 - -
28/11:00am 31.4 36.2 25.7 71 4.1 N 11 17 6 9 1013.4 - -
28/10:30am 31.6 37.1 26.2 73 3.9 NNE 9 15 5 8 1013.4 - -
28/10:00am 30.5 35.2 24.9 72 3.9 NNE 9 13 5 7 1013.3 - -
28/09:30am 30.2 35.3 25.5 76 3.3 NE 9 15 5 8 1013.1 - -
28/09:00am 29.1 34.2 25.5 81 2.5 ENE 9 13 5 7 1012.7 1012.6 -
28/08:30am 28.0 33.6 25.8 88 1.6 ENE 7 11 4 6 1012.4 - -
28/08:00am 26.5 31.4 25.3 93 0.8 E 9 13 5 7 1012.2 - -
28/07:30am 25.1 28.9 24.1 94 0.7 E 11 13 6 7 1012.0 - -
28/07:00am 24.3 28.4 23.3 94 0.7 E 7 9 4 5 1011.7 - -
28/06:30am 24.4 28.1 23.2 93 0.8 E 9 13 5 7 1011.6 - -
28/06:00am 24.3 27.9 23.1 93 0.8 E 9 11 5 6 1011.4 1011.3 -
28/05:30am 24.3 27.8 22.9 92 0.9 E 9 13 5 7 1011.4 - -
28/05:00am 24.2 27.5 22.5 90 1.1 E 9 11 5 6 1011.3 - -
28/04:30am 24.6 28.1 22.8 90 1.2 E 9 11 5 6 1011.0 - -
28/04:00am 24.5 27.8 22.6 89 1.3 E 9 13 5 7 1011.0 - -
28/03:30am 24.7 28.3 22.4 87 1.5 E 7 11 4 6 1011.1 - -
28/03:00am 25.3 28.6 22.6 85 1.8 E 9 13 5 7 1011.3 1011.2 -
28/02:30am 25.3 28.2 22.4 84 1.9 E 11 15 6 8 1011.5 - -
28/02:00am 25.2 28.6 22.7 86 1.7 E 9 13 5 7 1011.8 - -
28/01:30am 25.3 28.5 23.0 87 1.6 E 11 17 6 9 1012.1 - -
28/01:00am 24.9 28.1 23.0 89 1.3 ESE 11 13 6 7 1012.4 - -
28/12:30am 24.6 27.9 22.5 88 1.4 ESE 9 11 5 6 1012.7 - -
28/12:00am 24.5 27.5 22.0 86 1.7 E 9 11 5 6 1013.0 1012.9 -

Latest Capital City Observations: Canberra | Sydney | Melbourne | Brisbane | Adelaide | Perth | Hobart | Darwin

Other Formats:

Comma delimited format used in spreadsheet applications
http://www.bom.gov.au/fwo/IDD60901/IDD60901.94122.axf

JavaScript Object Notation format (JSON) in row-major order
http://www.bom.gov.au/fwo/IDD60901/IDD60901.94122.json